sensor_id;sensor_type;location;lat;lon;timestamp;temperature;humidity
45906;DHT22;31619;49.008;12.106;2022-10-16T00:01:41;14.50;99.90
45906;DHT22;31619;49.008;12.106;2022-10-16T00:04:08;14.50;99.90
45906;DHT22;31619;49.008;12.106;2022-10-16T00:06:33;14.50;99.90
45906;DHT22;31619;49.008;12.106;2022-10-16T00:08:59;14.50;99.90
45906;DHT22;31619;49.008;12.106;2022-10-16T00:11:31;14.50;99.90
45906;DHT22;31619;49.008;12.106;2022-10-16T00:14:00;14.40;99.90
45906;DHT22;31619;49.008;12.106;2022-10-16T00:16:27;14.30;99.90
45906;DHT22;31619;49.008;12.106;2022-10-16T00:19:09;14.40;99.90
45906;DHT22;31619;49.008;12.106;2022-10-16T00:22:13;14.50;99.90
45906;DHT22;31619;49.008;12.106;2022-10-16T00:24:44;14.50;99.90
45906;DHT22;31619;49.008;12.106;2022-10-16T00:27:10;14.50;99.90
45906;DHT22;31619;49.008;12.106;2022-10-16T00:29:35;14.50;99.90
45906;DHT22;31619;49.008;12.106;2022-10-16T00:32:01;14.50;99.90
45906;DHT22;31619;49.008;12.106;2022-10-16T00:34:27;14.40;99.90
45906;DHT22;31619;49.008;12.106;2022-10-16T00:36:55;14.40;99.90
45906;DHT22;31619;49.008;12.106;2022-10-16T00:39:21;14.40;99.90
45906;DHT22;31619;49.008;12.106;2022-10-16T00:41:47;14.40;99.90
45906;DHT22;31619;49.008;12.106;2022-10-16T00:44:43;14.50;99.90
45906;DHT22;31619;49.008;12.106;2022-10-16T00:47:30;14.50;99.90
45906;DHT22;31619;49.008;12.106;2022-10-16T00:52:39;14.50;99.90
45906;DHT22;31619;49.008;12.106;2022-10-16T00:55:08;14.40;99.90
45906;DHT22;31619;49.008;12.106;2022-10-16T00:57:34;14.50;99.90
45906;DHT22;31619;49.008;12.106;2022-10-16T01:00:00;14.50;99.90
45906;DHT22;31619;49.008;12.106;2022-10-16T01:02:27;14.40;99.90
45906;DHT22;31619;49.008;12.106;2022-10-16T01:04:53;14.30;99.90
45906;DHT22;31619;49.008;12.106;2022-10-16T01:10:06;14.40;99.90
45906;DHT22;31619;49.008;12.106;2022-10-16T01:12:46;14.30;99.90
45906;DHT22;31619;49.008;12.106;2022-10-16T01:15:36;14.30;99.90
45906;DHT22;31619;49.008;12.106;2022-10-16T01:18:16;14.20;99.90
45906;DHT22;31619;49.008;12.106;2022-10-16T01:20:54;14.20;99.90
45906;DHT22;31619;49.008;12.106;2022-10-16T01:31:36;14.30;99.90
45906;DHT22;31619;49.008;12.106;2022-10-16T01:34:15;14.30;99.90
45906;DHT22;31619;49.008;12.106;2022-10-16T01:36:51;14.30;99.90
45906;DHT22;31619;49.008;12.106;2022-10-16T01:39:21;14.30;99.90
45906;DHT22;31619;49.008;12.106;2022-10-16T01:42:19;14.30;99.90
45906;DHT22;31619;49.008;12.106;2022-10-16T01:44:47;14.20;99.90
45906;DHT22;31619;49.008;12.106;2022-10-16T01:47:14;14.20;99.90
45906;DHT22;31619;49.008;12.106;2022-10-16T01:49:41;14.20;99.90
45906;DHT22;31619;49.008;12.106;2022-10-16T01:52:17;14.20;99.90
45906;DHT22;31619;49.008;12.106;2022-10-16T01:54:47;14.20;99.90
45906;DHT22;31619;49.008;12.106;2022-10-16T01:57:14;14.20;99.90
45906;DHT22;31619;49.008;12.106;2022-10-16T01:59:44;14.20;99.90
45906;DHT22;31619;49.008;12.106;2022-10-16T02:02:11;14.20;99.90
45906;DHT22;31619;49.008;12.106;2022-10-16T02:04:43;14.10;99.90
45906;DHT22;31619;49.008;12.106;2022-10-16T02:07:18;14.10;99.90
45906;DHT22;31619;49.008;12.106;2022-10-16T02:09:44;14.10;99.90
45906;DHT22;31619;49.008;12.106;2022-10-16T02:12:26;14.10;99.90
45906;DHT22;31619;49.008;12.106;2022-10-16T02:14:53;14.10;99.90
45906;DHT22;31619;49.008;12.106;2022-10-16T02:17:20;14.20;99.90
45906;DHT22;31619;49.008;12.106;2022-10-16T02:19:48;14.30;99.90
45906;DHT22;31619;49.008;12.106;2022-10-16T02:22:26;14.20;99.90
45906;DHT22;31619;49.008;12.106;2022-10-16T02:25:22;14.30;99.90
45906;DHT22;31619;49.008;12.106;2022-10-16T02:28:14;14.20;99.90
45906;DHT22;31619;49.008;12.106;2022-10-16T02:30:58;14.20;99.90
45906;DHT22;31619;49.008;12.106;2022-10-16T02:33:26;14.20;99.90
45906;DHT22;31619;49.008;12.106;2022-10-16T02:35:53;14.20;99.90
45906;DHT22;31619;49.008;12.106;2022-10-16T02:38:40;14.20;99.90
45906;DHT22;31619;49.008;12.106;2022-10-16T02:41:06;14.10;99.90
45906;DHT22;31619;49.008;12.106;2022-10-16T02:43:32;14.10;99.90
45906;DHT22;31619;49.008;12.106;2022-10-16T02:45:59;14.20;99.90
45906;DHT22;31619;49.008;12.106;2022-10-16T02:48:24;14.10;99.90
45906;DHT22;31619;49.008;12.106;2022-10-16T02:50:50;14.10;99.90
45906;DHT22;31619;49.008;12.106;2022-10-16T02:53:16;14.20;99.90
45906;DHT22;31619;49.008;12.106;2022-10-16T02:55:42;14.10;99.90
45906;DHT22;31619;49.008;12.106;2022-10-16T02:58:11;14.10;99.90
45906;DHT22;31619;49.008;12.106;2022-10-16T03:00:36;14.10;99.90
45906;DHT22;31619;49.008;12.106;2022-10-16T03:03:02;14.00;99.90
45906;DHT22;31619;49.008;12.106;2022-10-16T03:05:27;14.10;99.90
45906;DHT22;31619;49.008;12.106;2022-10-16T03:07:53;14.10;99.90
45906;DHT22;31619;49.008;12.106;2022-10-16T03:10:19;14.10;99.90
45906;DHT22;31619;49.008;12.106;2022-10-16T03:12:44;14.20;99.90
45906;DHT22;31619;49.008;12.106;2022-10-16T03:15:13;14.10;99.90
45906;DHT22;31619;49.008;12.106;2022-10-16T03:17:39;14.20;99.90
45906;DHT22;31619;49.008;12.106;2022-10-16T03:29:58;14.10;99.90
45906;DHT22;31619;49.008;12.106;2022-10-16T03:32:34;14.10;99.90
45906;DHT22;31619;49.008;12.106;2022-10-16T03:35:08;14.20;99.90
45906;DHT22;31619;49.008;12.106;2022-10-16T03:37:33;14.20;99.90
45906;DHT22;31619;49.008;12.106;2022-10-16T03:40:13;14.20;99.90
45906;DHT22;31619;49.008;12.106;2022-10-16T03:43:03;14.30;99.90
45906;DHT22;31619;49.008;12.106;2022-10-16T03:48:36;14.30;99.90
45906;DHT22;31619;49.008;12.106;2022-10-16T03:51:01;14.30;99.90
45906;DHT22;31619;49.008;12.106;2022-10-16T03:53:33;14.20;99.90
45906;DHT22;31619;49.008;12.106;2022-10-16T03:56:02;14.10;99.90
45906;DHT22;31619;49.008;12.106;2022-10-16T03:58:27;14.10;99.90
45906;DHT22;31619;49.008;12.106;2022-10-16T04:00:53;14.00;99.90
45906;DHT22;31619;49.008;12.106;2022-10-16T04:03:19;14.00;99.90
45906;DHT22;31619;49.008;12.106;2022-10-16T04:05:45;13.90;99.90
45906;DHT22;31619;49.008;12.106;2022-10-16T04:08:10;13.90;99.90
45906;DHT22;31619;49.008;12.106;2022-10-16T04:10:36;13.80;99.90
45906;DHT22;31619;49.008;12.106;2022-10-16T04:13:01;13.80;99.90
45906;DHT22;31619;49.008;12.106;2022-10-16T04:15:55;13.80;99.90
45906;DHT22;31619;49.008;12.106;2022-10-16T04:21:06;13.80;99.90
45906;DHT22;31619;49.008;12.106;2022-10-16T04:23:32;13.80;99.90
45906;DHT22;31619;49.008;12.106;2022-10-16T04:26:04;13.80;99.90
45906;DHT22;31619;49.008;12.106;2022-10-16T04:28:30;13.80;99.90
45906;DHT22;31619;49.008;12.106;2022-10-16T04:30:55;13.90;99.90
45906;DHT22;31619;49.008;12.106;2022-10-16T04:33:21;13.90;99.90
45906;DHT22;31619;49.008;12.106;2022-10-16T04:35:47;13.90;99.90
45906;DHT22;31619;49.008;12.106;2022-10-16T04:38:13;14.00;99.90
45906;DHT22;31619;49.008;12.106;2022-10-16T04:40:38;14.00;99.90
45906;DHT22;31619;49.008;12.106;2022-10-16T04:43:05;14.00;99.90
45906;DHT22;31619;49.008;12.106;2022-10-16T04:45:31;14.10;99.90
45906;DHT22;31619;49.008;12.106;2022-10-16T04:48:00;14.10;99.90
45906;DHT22;31619;49.008;12.106;2022-10-16T04:50:26;14.00;99.90
45906;DHT22;31619;49.008;12.106;2022-10-16T04:52:52;14.10;99.90
45906;DHT22;31619;49.008;12.106;2022-10-16T04:55:17;14.20;99.90
45906;DHT22;31619;49.008;12.106;2022-10-16T04:57:43;14.10;99.90
45906;DHT22;31619;49.008;12.106;2022-10-16T05:00:09;14.10;99.90
45906;DHT22;31619;49.008;12.106;2022-10-16T05:02:35;14.10;99.90
45906;DHT22;31619;49.008;12.106;2022-10-16T05:05:00;14.00;99.90
45906;DHT22;31619;49.008;12.106;2022-10-16T05:07:26;14.00;99.90
45906;DHT22;31619;49.008;12.106;2022-10-16T05:09:52;13.90;99.90
45906;DHT22;31619;49.008;12.106;2022-10-16T05:12:17;13.80;99.90
45906;DHT22;31619;49.008;12.106;2022-10-16T05:14:43;13.80;99.90
45906;DHT22;31619;49.008;12.106;2022-10-16T05:17:08;13.80;99.90
45906;DHT22;31619;49.008;12.106;2022-10-16T05:19:34;13.80;99.90
45906;DHT22;31619;49.008;12.106;2022-10-16T05:22:00;13.80;99.90
45906;DHT22;31619;49.008;12.106;2022-10-16T05:24:26;13.80;99.90
45906;DHT22;31619;49.008;12.106;2022-10-16T05:26:51;13.70;99.90
45906;DHT22;31619;49.008;12.106;2022-10-16T05:29:17;13.70;99.90
45906;DHT22;31619;49.008;12.106;2022-10-16T05:31:43;13.80;99.90
45906;DHT22;31619;49.008;12.106;2022-10-16T05:34:08;13.80;99.90
45906;DHT22;31619;49.008;12.106;2022-10-16T05:36:34;13.90;99.90
45906;DHT22;31619;49.008;12.106;2022-10-16T05:39:00;13.90;99.90
45906;DHT22;31619;49.008;12.106;2022-10-16T05:41:25;13.90;99.90
45906;DHT22;31619;49.008;12.106;2022-10-16T05:43:52;13.90;99.90
45906;DHT22;31619;49.008;12.106;2022-10-16T05:46:18;13.90;99.90
45906;DHT22;31619;49.008;12.106;2022-10-16T05:48:44;14.00;99.90
45906;DHT22;31619;49.008;12.106;2022-10-16T05:51:12;14.00;99.90
45906;DHT22;31619;49.008;12.106;2022-10-16T05:53:39;13.90;99.90
45906;DHT22;31619;49.008;12.106;2022-10-16T05:56:06;13.80;99.90
45906;DHT22;31619;49.008;12.106;2022-10-16T05:58:34;13.80;99.90
45906;DHT22;31619;49.008;12.106;2022-10-16T06:01:06;13.80;99.90
45906;DHT22;31619;49.008;12.106;2022-10-16T06:03:33;13.90;99.90
45906;DHT22;31619;49.008;12.106;2022-10-16T06:05:59;13.90;99.90
45906;DHT22;31619;49.008;12.106;2022-10-16T06:08:32;13.90;99.90
45906;DHT22;31619;49.008;12.106;2022-10-16T06:11:05;13.90;99.90
45906;DHT22;31619;49.008;12.106;2022-10-16T06:13:31;13.90;99.90
45906;DHT22;31619;49.008;12.106;2022-10-16T06:15:58;13.90;99.90
45906;DHT22;31619;49.008;12.106;2022-10-16T06:18:24;13.90;99.90
45906;DHT22;31619;49.008;12.106;2022-10-16T06:20:50;14.00;99.90
45906;DHT22;31619;49.008;12.106;2022-10-16T06:23:16;14.10;99.90
45906;DHT22;31619;49.008;12.106;2022-10-16T06:25:41;14.10;99.90
45906;DHT22;31619;49.008;12.106;2022-10-16T06:28:07;14.20;99.90
45906;DHT22;31619;49.008;12.106;2022-10-16T06:30:32;14.20;99.90
45906;DHT22;31619;49.008;12.106;2022-10-16T06:32:58;14.20;99.90
45906;DHT22;31619;49.008;12.106;2022-10-16T06:35:24;14.20;99.90
45906;DHT22;31619;49.008;12.106;2022-10-16T06:37:49;14.20;99.90
45906;DHT22;31619;49.008;12.106;2022-10-16T06:40:15;14.20;99.90
45906;DHT22;31619;49.008;12.106;2022-10-16T06:42:41;14.30;99.90
45906;DHT22;31619;49.008;12.106;2022-10-16T06:45:07;14.40;99.90
45906;DHT22;31619;49.008;12.106;2022-10-16T06:47:33;14.50;99.90
45906;DHT22;31619;49.008;12.106;2022-10-16T06:49:58;14.50;99.90
45906;DHT22;31619;49.008;12.106;2022-10-16T06:52:24;14.50;99.90
45906;DHT22;31619;49.008;12.106;2022-10-16T06:54:50;14.50;99.90
45906;DHT22;31619;49.008;12.106;2022-10-16T06:57:15;14.60;99.90
45906;DHT22;31619;49.008;12.106;2022-10-16T06:59:41;14.70;99.90
45906;DHT22;31619;49.008;12.106;2022-10-16T07:02:08;14.70;99.90
45906;DHT22;31619;49.008;12.106;2022-10-16T07:04:35;14.70;99.90
45906;DHT22;31619;49.008;12.106;2022-10-16T07:07:01;14.80;99.90
45906;DHT22;31619;49.008;12.106;2022-10-16T07:09:26;14.80;99.90
45906;DHT22;31619;49.008;12.106;2022-10-16T07:11:52;14.90;99.90
45906;DHT22;31619;49.008;12.106;2022-10-16T07:14:20;14.90;99.90
45906;DHT22;31619;49.008;12.106;2022-10-16T07:16:46;15.00;99.90
45906;DHT22;31619;49.008;12.106;2022-10-16T07:19:12;15.00;99.90
45906;DHT22;31619;49.008;12.106;2022-10-16T07:21:40;15.30;99.90
45906;DHT22;31619;49.008;12.106;2022-10-16T07:24:10;15.50;99.90
45906;DHT22;31619;49.008;12.106;2022-10-16T07:26:36;15.60;99.90
45906;DHT22;31619;49.008;12.106;2022-10-16T07:29:05;15.80;99.90
45906;DHT22;31619;49.008;12.106;2022-10-16T07:31:31;15.80;99.90
45906;DHT22;31619;49.008;12.106;2022-10-16T07:33:59;15.80;99.90
45906;DHT22;31619;49.008;12.106;2022-10-16T07:36:25;15.80;99.90
45906;DHT22;31619;49.008;12.106;2022-10-16T07:38:50;15.90;99.90
45906;DHT22;31619;49.008;12.106;2022-10-16T07:41:18;16.00;99.90
45906;DHT22;31619;49.008;12.106;2022-10-16T07:43:51;16.10;99.90
45906;DHT22;31619;49.008;12.106;2022-10-16T07:46:23;16.40;99.90
45906;DHT22;31619;49.008;12.106;2022-10-16T07:48:49;16.50;99.90
45906;DHT22;31619;49.008;12.106;2022-10-16T07:51:20;16.60;99.90
45906;DHT22;31619;49.008;12.106;2022-10-16T07:53:46;16.90;99.90
45906;DHT22;31619;49.008;12.106;2022-10-16T07:56:12;17.20;99.90
45906;DHT22;31619;49.008;12.106;2022-10-16T07:58:38;17.50;99.90
45906;DHT22;31619;49.008;12.106;2022-10-16T08:01:09;17.80;99.90
45906;DHT22;31619;49.008;12.106;2022-10-16T08:03:35;18.10;99.90
45906;DHT22;31619;49.008;12.106;2022-10-16T08:06:01;18.00;99.90
45906;DHT22;31619;49.008;12.106;2022-10-16T08:08:27;18.00;99.90
45906;DHT22;31619;49.008;12.106;2022-10-16T08:10:53;18.00;99.90
45906;DHT22;31619;49.008;12.106;2022-10-16T08:13:18;17.90;99.90
45906;DHT22;31619;49.008;12.106;2022-10-16T08:15:45;17.90;99.90
45906;DHT22;31619;49.008;12.106;2022-10-16T08:18:12;17.80;99.90
45906;DHT22;31619;49.008;12.106;2022-10-16T08:20:39;17.80;99.90
45906;DHT22;31619;49.008;12.106;2022-10-16T08:23:05;17.90;99.90
45906;DHT22;31619;49.008;12.106;2022-10-16T08:25:30;18.40;99.90
45906;DHT22;31619;49.008;12.106;2022-10-16T08:27:56;19.10;99.90
45906;DHT22;31619;49.008;12.106;2022-10-16T08:30:23;19.50;99.90
45906;DHT22;31619;49.008;12.106;2022-10-16T08:32:49;19.80;99.90
45906;DHT22;31619;49.008;12.106;2022-10-16T08:35:15;20.00;99.90
45906;DHT22;31619;49.008;12.106;2022-10-16T08:37:41;20.10;99.90
45906;DHT22;31619;49.008;12.106;2022-10-16T08:40:20;20.30;99.90
45906;DHT22;31619;49.008;12.106;2022-10-16T08:50:44;20.40;99.90
45906;DHT22;31619;49.008;12.106;2022-10-16T08:53:32;20.30;99.90
45906;DHT22;31619;49.008;12.106;2022-10-16T08:55:59;20.20;99.90
45906;DHT22;31619;49.008;12.106;2022-10-16T08:58:29;20.50;99.90
45906;DHT22;31619;49.008;12.106;2022-10-16T09:00:58;20.70;99.90
45906;DHT22;31619;49.008;12.106;2022-10-16T09:11:29;22.80;99.90
45906;DHT22;31619;49.008;12.106;2022-10-16T09:14:17;24.00;99.90
45906;DHT22;31619;49.008;12.106;2022-10-16T09:17:00;25.60;99.90
45906;DHT22;31619;49.008;12.106;2022-10-16T09:19:50;26.80;99.90
45906;DHT22;31619;49.008;12.106;2022-10-16T09:22:16;28.40;99.90
45906;DHT22;31619;49.008;12.106;2022-10-16T09:24:42;30.00;96.70
45906;DHT22;31619;49.008;12.106;2022-10-16T09:27:14;31.20;92.80
45906;DHT22;31619;49.008;12.106;2022-10-16T09:29:40;31.80;90.90
45906;DHT22;31619;49.008;12.106;2022-10-16T09:32:11;32.60;85.10
45906;DHT22;31619;49.008;12.106;2022-10-16T09:34:42;32.90;80.20
45906;DHT22;31619;49.008;12.106;2022-10-16T09:37:12;33.70;75.20
45906;DHT22;31619;49.008;12.106;2022-10-16T09:39:51;33.70;72.60
45906;DHT22;31619;49.008;12.106;2022-10-16T09:42:43;34.30;70.30
45906;DHT22;31619;49.008;12.106;2022-10-16T09:45:21;34.80;68.90
45906;DHT22;31619;49.008;12.106;2022-10-16T09:47:48;35.70;64.80
45906;DHT22;31619;49.008;12.106;2022-10-16T09:50:26;36.20;63.00
45906;DHT22;31619;49.008;12.106;2022-10-16T09:53:13;36.40;62.60
45906;DHT22;31619;49.008;12.106;2022-10-16T09:55:52;36.60;61.10
45906;DHT22;31619;49.008;12.106;2022-10-16T09:58:22;36.70;59.30
45906;DHT22;31619;49.008;12.106;2022-10-16T10:00:51;36.30;59.70
45906;DHT22;31619;49.008;12.106;2022-10-16T10:03:39;36.00;60.30
45906;DHT22;31619;49.008;12.106;2022-10-16T10:11:39;36.50;58.80
45906;DHT22;31619;49.008;12.106;2022-10-16T10:14:13;36.70;57.60
45906;DHT22;31619;49.008;12.106;2022-10-16T10:16:40;36.10;58.40
45906;DHT22;31619;49.008;12.106;2022-10-16T10:19:17;36.30;58.40
45906;DHT22;31619;49.008;12.106;2022-10-16T10:21:43;36.30;58.30
45906;DHT22;31619;49.008;12.106;2022-10-16T10:24:13;36.50;58.00
45906;DHT22;31619;49.008;12.106;2022-10-16T10:27:06;37.20;57.20
45906;DHT22;31619;49.008;12.106;2022-10-16T10:32:40;37.30;55.90
45906;DHT22;31619;49.008;12.106;2022-10-16T10:45:37;38.10;54.70
45906;DHT22;31619;49.008;12.106;2022-10-16T10:50:51;36.10;56.70
45906;DHT22;31619;49.008;12.106;2022-10-16T10:53:29;34.40;59.60
45906;DHT22;31619;49.008;12.106;2022-10-16T11:01:21;31.10;67.10
45906;DHT22;31619;49.008;12.106;2022-10-16T11:06:51;29.70;73.40
45906;DHT22;31619;49.008;12.106;2022-10-16T11:12:05;29.80;74.50
45906;DHT22;31619;49.008;12.106;2022-10-16T11:14:40;30.10;74.40
45906;DHT22;31619;49.008;12.106;2022-10-16T11:17:09;30.20;74.20
45906;DHT22;31619;49.008;12.106;2022-10-16T11:19:49;30.10;74.10
45906;DHT22;31619;49.008;12.106;2022-10-16T11:22:28;30.00;74.50
45906;DHT22;31619;49.008;12.106;2022-10-16T11:25:04;30.00;75.40
45906;DHT22;31619;49.008;12.106;2022-10-16T11:27:45;31.20;73.10
45906;DHT22;31619;49.008;12.106;2022-10-16T11:30:23;33.40;68.00
45906;DHT22;31619;49.008;12.106;2022-10-16T11:40:48;37.70;56.60
45906;DHT22;31619;49.008;12.106;2022-10-16T11:43:27;39.20;55.00
45906;DHT22;31619;49.008;12.106;2022-10-16T11:46:00;40.80;53.10
45906;DHT22;31619;49.008;12.106;2022-10-16T11:54:35;44.10;46.40
45906;DHT22;31619;49.008;12.106;2022-10-16T11:57:10;44.00;45.40
45906;DHT22;31619;49.008;12.106;2022-10-16T11:59:45;43.30;45.90
45906;DHT22;31619;49.008;12.106;2022-10-16T12:02:39;42.60;47.10
45906;DHT22;31619;49.008;12.106;2022-10-16T12:07:36;42.70;46.90
45906;DHT22;31619;49.008;12.106;2022-10-16T12:10:25;43.10;45.80
45906;DHT22;31619;49.008;12.106;2022-10-16T12:12:51;42.90;46.40
45906;DHT22;31619;49.008;12.106;2022-10-16T12:15:29;43.10;45.70
45906;DHT22;31619;49.008;12.106;2022-10-16T12:17:56;43.40;45.70
45906;DHT22;31619;49.008;12.106;2022-10-16T12:20:28;43.30;45.20
45906;DHT22;31619;49.008;12.106;2022-10-16T12:22:57;42.80;45.80
45906;DHT22;31619;49.008;12.106;2022-10-16T12:25:36;41.50;47.10
45906;DHT22;31619;49.008;12.106;2022-10-16T12:28:19;40.80;48.00
45906;DHT22;31619;49.008;12.106;2022-10-16T12:31:01;39.90;49.00
45906;DHT22;31619;49.008;12.106;2022-10-16T12:33:29;39.50;49.70
45906;DHT22;31619;49.008;12.106;2022-10-16T12:35:58;39.10;50.10
45906;DHT22;31619;49.008;12.106;2022-10-16T12:38:48;38.30;51.60
45906;DHT22;31619;49.008;12.106;2022-10-16T12:41:25;37.10;53.00
45906;DHT22;31619;49.008;12.106;2022-10-16T12:43:52;35.20;56.00
45906;DHT22;31619;49.008;12.106;2022-10-16T12:48:44;33.00;60.70
45906;DHT22;31619;49.008;12.106;2022-10-16T12:51:34;32.20;61.90
45906;DHT22;31619;49.008;12.106;2022-10-16T12:56:56;31.30;66.30
45906;DHT22;31619;49.008;12.106;2022-10-16T13:05:02;30.90;67.90
45906;DHT22;31619;49.008;12.106;2022-10-16T13:18:19;29.50;72.70
45906;DHT22;31619;49.008;12.106;2022-10-16T13:20:59;29.20;74.60
45906;DHT22;31619;49.008;12.106;2022-10-16T13:29:02;28.10;79.50
45906;DHT22;31619;49.008;12.106;2022-10-16T13:31:28;27.90;80.40
45906;DHT22;31619;49.008;12.106;2022-10-16T13:33:57;27.80;81.70
45906;DHT22;31619;49.008;12.106;2022-10-16T13:36:35;27.90;81.20
45906;DHT22;31619;49.008;12.106;2022-10-16T13:39:26;27.60;82.00
45906;DHT22;31619;49.008;12.106;2022-10-16T13:42:10;27.50;83.30
45906;DHT22;31619;49.008;12.106;2022-10-16T13:44:48;27.60;83.40
45906;DHT22;31619;49.008;12.106;2022-10-16T13:47:26;27.70;83.70
45906;DHT22;31619;49.008;12.106;2022-10-16T13:50:09;27.60;83.70
45906;DHT22;31619;49.008;12.106;2022-10-16T13:52:36;27.80;83.70
45906;DHT22;31619;49.008;12.106;2022-10-16T13:55:04;28.30;83.50
45906;DHT22;31619;49.008;12.106;2022-10-16T13:57:30;28.00;83.20
45906;DHT22;31619;49.008;12.106;2022-10-16T13:59:55;28.00;84.70
45906;DHT22;31619;49.008;12.106;2022-10-16T14:04:51;27.60;86.20
45906;DHT22;31619;49.008;12.106;2022-10-16T14:07:24;27.50;86.90
45906;DHT22;31619;49.008;12.106;2022-10-16T14:09:52;27.60;86.50
45906;DHT22;31619;49.008;12.106;2022-10-16T14:12:18;27.50;86.80
45906;DHT22;31619;49.008;12.106;2022-10-16T14:14:46;27.40;87.50
45906;DHT22;31619;49.008;12.106;2022-10-16T14:17:23;27.30;89.00
45906;DHT22;31619;49.008;12.106;2022-10-16T14:19:51;26.90;90.10
45906;DHT22;31619;49.008;12.106;2022-10-16T14:24:49;27.10;90.50
45906;DHT22;31619;49.008;12.106;2022-10-16T14:27:35;27.10;90.80
45906;DHT22;31619;49.008;12.106;2022-10-16T14:30:14;26.90;91.00
45906;DHT22;31619;49.008;12.106;2022-10-16T14:32:42;27.10;91.30
45906;DHT22;31619;49.008;12.106;2022-10-16T14:35:27;27.10;91.20
45906;DHT22;31619;49.008;12.106;2022-10-16T14:37:54;27.00;91.60
45906;DHT22;31619;49.008;12.106;2022-10-16T14:40:23;27.10;91.70
45906;DHT22;31619;49.008;12.106;2022-10-16T14:42:49;27.10;91.50
45906;DHT22;31619;49.008;12.106;2022-10-16T14:45:19;27.10;91.80
45906;DHT22;31619;49.008;12.106;2022-10-16T14:48:03;27.10;92.00
45906;DHT22;31619;49.008;12.106;2022-10-16T14:50:29;27.20;92.00
45906;DHT22;31619;49.008;12.106;2022-10-16T14:52:55;26.80;92.20
45906;DHT22;31619;49.008;12.106;2022-10-16T14:55:21;26.40;93.40
45906;DHT22;31619;49.008;12.106;2022-10-16T14:57:47;26.40;93.70
45906;DHT22;31619;49.008;12.106;2022-10-16T15:00:19;26.30;94.10
45906;DHT22;31619;49.008;12.106;2022-10-16T15:02:46;26.50;94.20
45906;DHT22;31619;49.008;12.106;2022-10-16T15:05:19;26.90;93.60
45906;DHT22;31619;49.008;12.106;2022-10-16T15:07:46;27.30;92.70
45906;DHT22;31619;49.008;12.106;2022-10-16T15:10:13;28.20;91.60
45906;DHT22;31619;49.008;12.106;2022-10-16T15:12:38;29.10;88.90
45906;DHT22;31619;49.008;12.106;2022-10-16T15:15:34;29.60;87.30
45906;DHT22;31619;49.008;12.106;2022-10-16T15:18:00;30.10;84.30
45906;DHT22;31619;49.008;12.106;2022-10-16T15:20:35;30.30;82.50
45906;DHT22;31619;49.008;12.106;2022-10-16T15:23:02;29.80;83.20
45906;DHT22;31619;49.008;12.106;2022-10-16T15:28:05;28.90;86.60
45906;DHT22;31619;49.008;12.106;2022-10-16T15:30:32;28.70;87.50
45906;DHT22;31619;49.008;12.106;2022-10-16T15:32:58;27.90;89.10
45906;DHT22;31619;49.008;12.106;2022-10-16T15:35:24;27.00;91.30
45906;DHT22;31619;49.008;12.106;2022-10-16T15:37:49;26.00;93.40
45906;DHT22;31619;49.008;12.106;2022-10-16T15:40:17;25.20;95.70
45906;DHT22;31619;49.008;12.106;2022-10-16T15:42:43;24.50;98.00
45906;DHT22;31619;49.008;12.106;2022-10-16T15:45:09;23.70;99.90
45906;DHT22;31619;49.008;12.106;2022-10-16T15:47:35;23.30;99.90
45906;DHT22;31619;49.008;12.106;2022-10-16T15:50:01;22.80;99.90
45906;DHT22;31619;49.008;12.106;2022-10-16T15:52:27;22.50;99.90
45906;DHT22;31619;49.008;12.106;2022-10-16T15:54:54;22.20;99.90
45906;DHT22;31619;49.008;12.106;2022-10-16T15:57:20;21.80;99.90
45906;DHT22;31619;49.008;12.106;2022-10-16T15:59:45;21.60;99.90
45906;DHT22;31619;49.008;12.106;2022-10-16T16:02:11;21.40;99.90
45906;DHT22;31619;49.008;12.106;2022-10-16T16:04:37;21.10;99.90
45906;DHT22;31619;49.008;12.106;2022-10-16T16:07:02;20.80;99.90
45906;DHT22;31619;49.008;12.106;2022-10-16T16:09:31;20.60;99.90
45906;DHT22;31619;49.008;12.106;2022-10-16T16:11:56;20.40;99.90
45906;DHT22;31619;49.008;12.106;2022-10-16T16:14:27;20.10;99.90
45906;DHT22;31619;49.008;12.106;2022-10-16T16:16:55;19.90;99.90
45906;DHT22;31619;49.008;12.106;2022-10-16T16:19:21;19.70;99.90
45906;DHT22;31619;49.008;12.106;2022-10-16T16:21:47;19.60;99.90
45906;DHT22;31619;49.008;12.106;2022-10-16T16:24:13;19.40;99.90
45906;DHT22;31619;49.008;12.106;2022-10-16T16:26:39;19.30;99.90
45906;DHT22;31619;49.008;12.106;2022-10-16T16:29:13;19.20;99.90
45906;DHT22;31619;49.008;12.106;2022-10-16T16:31:39;18.90;99.90
45906;DHT22;31619;49.008;12.106;2022-10-16T16:34:05;18.80;99.90
45906;DHT22;31619;49.008;12.106;2022-10-16T16:36:31;18.70;99.90
45906;DHT22;31619;49.008;12.106;2022-10-16T16:38:57;18.60;99.90
45906;DHT22;31619;49.008;12.106;2022-10-16T16:41:25;18.50;99.90
45906;DHT22;31619;49.008;12.106;2022-10-16T16:43:52;18.40;99.90
45906;DHT22;31619;49.008;12.106;2022-10-16T16:46:18;18.30;99.90
45906;DHT22;31619;49.008;12.106;2022-10-16T16:48:45;18.20;99.90
45906;DHT22;31619;49.008;12.106;2022-10-16T16:51:16;18.10;99.90
45906;DHT22;31619;49.008;12.106;2022-10-16T16:53:48;18.10;99.90
45906;DHT22;31619;49.008;12.106;2022-10-16T16:56:14;17.90;99.90
45906;DHT22;31619;49.008;12.106;2022-10-16T16:58:40;17.90;99.90
45906;DHT22;31619;49.008;12.106;2022-10-16T17:01:06;17.80;99.90
45906;DHT22;31619;49.008;12.106;2022-10-16T17:03:35;17.70;99.90
45906;DHT22;31619;49.008;12.106;2022-10-16T17:06:05;17.70;99.90
45906;DHT22;31619;49.008;12.106;2022-10-16T17:08:31;17.60;99.90
45906;DHT22;31619;49.008;12.106;2022-10-16T17:10:57;17.50;99.90
45906;DHT22;31619;49.008;12.106;2022-10-16T17:13:32;17.50;99.90
45906;DHT22;31619;49.008;12.106;2022-10-16T17:16:00;17.40;99.90
45906;DHT22;31619;49.008;12.106;2022-10-16T17:18:26;17.40;99.90
45906;DHT22;31619;49.008;12.106;2022-10-16T17:20:52;17.30;99.90
45906;DHT22;31619;49.008;12.106;2022-10-16T17:23:18;17.30;99.90
45906;DHT22;31619;49.008;12.106;2022-10-16T17:25:45;17.30;99.90
45906;DHT22;31619;49.008;12.106;2022-10-16T17:28:12;17.20;99.90
45906;DHT22;31619;49.008;12.106;2022-10-16T17:30:41;17.10;99.90
45906;DHT22;31619;49.008;12.106;2022-10-16T17:33:08;17.10;99.90
45906;DHT22;31619;49.008;12.106;2022-10-16T17:35:52;17.00;99.90
45906;DHT22;31619;49.008;12.106;2022-10-16T17:38:17;17.20;99.90
45906;DHT22;31619;49.008;12.106;2022-10-16T17:40:43;17.20;99.90
45906;DHT22;31619;49.008;12.106;2022-10-16T17:43:09;17.20;99.90